Startpagina
METAR-TAF:

METAR-TAF

Vliegvelden :

McKinley Park, Alaska, Verenigde Staten

breedte: 63-44N, lengte: 148-55W, hoogte: 524 m

Actueel weer

Dit bericht is 50 minuten geleden gemaakt, om 16:56 UTC
Wind 4 kt uit het zuiden
Temperatuur -4°C
Vochtigheid 80%
Druk 1018 hPa
Zicht: 16.1 km
Weinig wolken op 12000 ft

METAR: PAIN 161656Z AUTO 18004KT 10SM FEW120 M04/M07 A3007 RMK AO2 SLP232 T10391067 FZRANO

Tijdstip: 08:46 (17:46 UTC)


TAF: ontbreekt

Waarnemingen en weersverwachtingen van meer dan 4000 vliegvelden (METAR en TAF).

De beschikbare stations zijn de gele en rode punten op de kaart.

Ga met uw muis naar het station om de naam te zien.

Klik dan om waarnemingen en weersverwachtingen te zien.

kaart wijzigen: klik op de groene knoppen met een zwart kruis om in te zoomen, op de groene knop met een streepje om uit te zoomen of op de groene pijlen voor aangrenzende kaarten.


METAR-TAF: